Time;durP1;ratioP1;P1;durP2;ratioP2;P2;SDS_P1;SDS_P2;PMS_P1;PMS_P2;Temp;Humidity;BMP_temperature;BMP_pressure;BME280_temperature;BME280_humidity;BME280_pressure;Samples;Min_cycle;Max_cycle;Signal;HPM_P1;HPM_P2
2023/11/28 00:01:32;;;;;;;2.72;1.98;;;;;;;;;;4910060;29;20832;-80
2023/11/28 00:03:57;;;;;;;3.40;2.20;;;;;;;;;;4913290;29;20031;-80
2023/11/28 00:06:22;;;;;;;4.20;2.77;;;;;;;;;;4905785;29;20271;-80
2023/11/28 00:08:48;;;;;;;5.47;2.43;;;;;;;;;;4909719;29;20271;-80
2023/11/28 00:11:20;;;;;;;3.50;2.23;;;;;;;;;;4925113;29;20289;-80
2023/11/28 00:13:45;;;;;;;;;;;;;;;;;;4902594;29;20289;-83
2023/11/28 00:16:11;;;;;;;2.47;1.98;;;;;;;;;;4932119;29;20017;-83
2023/11/28 00:18:36;;;;;;;2.72;2.15;;;;;;;;;;4918320;29;20099;-84
2023/11/28 00:21:01;;;;;;;2.50;2.03;;;;;;;;;;4909426;29;20028;-83
2023/11/28 00:23:26;;;;;;;3.63;2.23;;;;;;;;;;4928883;29;20031;-83
2023/11/28 00:25:51;;;;;;;3.00;2.15;;;;;;;;;;4913461;29;20267;-84
2023/11/28 00:28:17;;;;;;;3.07;2.00;;;;;;;;;;4932284;29;20540;-84
2023/11/28 00:30:42;;;;;;;3.53;2.20;;;;;;;;;;4932634;29;20869;-84
2023/11/28 00:33:07;;;;;;;2.10;1.70;;;;;;;;;;4916421;29;20024;-83
2023/11/28 00:35:33;;;;;;;2.70;1.65;;;;;;;;;;4931495;29;20297;-84
2023/11/28 00:37:58;;;;;;;3.08;1.80;;;;;;;;;;4913538;29;20016;-83
2023/11/28 00:40:27;;;;;;;2.93;1.60;;;;;;;;;;4917404;29;20024;-83
2023/11/28 00:42:52;;;;;;;1.88;1.63;;;;;;;;;;4916355;29;20278;-83
2023/11/28 00:45:17;;;;;;;2.20;1.50;;;;;;;;;;4910211;29;20377;-83
2023/11/28 00:47:43;;;;;;;3.40;1.80;;;;;;;;;;4931560;29;20759;-83
2023/11/28 00:50:09;;;;;;;2.28;1.70;;;;;;;;;;4908752;29;20083;-84
2023/11/28 00:52:34;;;;;;;1.63;1.50;;;;;;;;;;4902801;29;20430;-84
2023/11/28 00:54:59;;;;;;;2.08;1.70;;;;;;;;;;4906339;29;20044;-83
2023/11/28 00:57:24;;;;;;;2.30;1.73;;;;;;;;;;4911262;29;20032;-84
2023/11/28 00:59:51;;;;;;;2.17;1.70;;;;;;;;;;4907990;29;20313;-83
2023/11/28 01:02:16;;;;;;;3.65;1.90;;;;;;;;;;4917437;29;20107;-83
2023/11/28 01:04:42;;;;;;;2.30;1.60;;;;;;;;;;4930840;29;20473;-84
2023/11/28 01:07:07;;;;;;;2.90;1.63;;;;;;;;;;4915696;29;20024;-83
2023/11/28 01:09:33;;;;;;;1.63;1.30;;;;;;;;;;4931759;29;20279;-84
2023/11/28 01:11:58;;;;;;;3.70;1.48;;;;;;;;;;4912985;29;20271;-84
2023/11/28 01:14:24;;;;;;;1.95;1.50;;;;;;;;;;4907824;29;20034;-84
2023/11/28 01:16:49;;;;;;;3.87;1.90;;;;;;;;;;4908777;29;20032;-83
2023/11/28 01:19:14;;;;;;;2.73;1.70;;;;;;;;;;4908492;29;20279;-83
2023/11/28 01:21:39;;;;;;;2.10;1.55;;;;;;;;;;4917818;29;20377;-84
2023/11/28 01:24:05;;;;;;;2.10;1.63;;;;;;;;;;4918077;29;20084;-84
2023/11/28 01:26:30;;;;;;;2.40;1.85;;;;;;;;;;4909895;29;20283;-83
2023/11/28 01:28:55;;;;;;;1.37;1.27;;;;;;;;;;4917727;29;20063;-84
2023/11/28 01:31:20;;;;;;;2.20;1.30;;;;;;;;;;4932450;29;20294;-84
2023/11/28 01:33:46;;;;;;;4.07;1.15;;;;;;;;;;4917559;29;20350;-84
2023/11/28 01:36:11;;;;;;;1.30;1.17;;;;;;;;;;4912739;29;20024;-84
2023/11/28 01:38:37;;;;;;;2.35;1.60;;;;;;;;;;4912464;29;20273;-84
2023/11/28 01:41:03;;;;;;;2.85;1.75;;;;;;;;;;4916370;29;20035;-82
2023/11/28 01:43:28;;;;;;;1.80;1.50;;;;;;;;;;4910033;29;20433;-84
2023/11/28 01:45:54;;;;;;;1.90;1.70;;;;;;;;;;4909507;29;20456;-83
2023/11/28 01:48:19;;;;;;;1.92;1.63;;;;;;;;;;4923866;29;20389;-84
2023/11/28 01:50:47;;;;;;;2.47;1.75;;;;;;;;;;4927009;29;20017;-84
2023/11/28 01:53:12;;;;;;;2.45;2.08;;;;;;;;;;4906825;29;20496;-84
2023/11/28 01:55:37;;;;;;;2.15;1.73;;;;;;;;;;4912211;29;20126;-84
2023/11/28 01:58:03;;;;;;;2.17;1.85;;;;;;;;;;4904319;29;20099;-84
2023/11/28 02:00:28;;;;;;;3.05;0.90;;;;;;;;;;4914070;29;20413;-83
2023/11/28 02:02:57;;;;;;;2.78;1.50;;;;;;;;;;4910397;29;20051;-83
2023/11/28 02:05:22;;;;;;;4.28;1.50;;;;;;;;;;4931921;29;20492;-84
2023/11/28 02:07:48;;;;;;;1.77;1.45;;;;;;;;;;4916807;29;20024;-83
2023/11/28 02:10:14;;;;;;;2.28;1.42;;;;;;;;;;4917257;29;20064;-84
2023/11/28 02:12:42;;;;;;;2.17;1.70;;;;;;;;;;4915823;29;20040;-83
2023/11/28 02:15:07;;;;;;;1.60;1.35;;;;;;;;;;4904349;29;20024;-84
2023/11/28 02:17:33;;;;;;;1.13;1.02;;;;;;;;;;4903316;29;20079;-83
2023/11/28 02:19:58;;;;;;;2.00;1.30;;;;;;;;;;4929372;29;20035;-83
2023/11/28 02:22:24;;;;;;;1.20;1.07;;;;;;;;;;4931487;29;20031;-84
2023/11/28 02:24:50;;;;;;;1.10;1.00;;;;;;;;;;4915577;29;20040;-84
2023/11/28 02:27:15;;;;;;;1.63;1.02;;;;;;;;;;4908813;29;20063;-84
2023/11/28 02:29:44;;;;;;;1.80;1.23;;;;;;;;;;4915760;29;20023;-84
2023/11/28 02:32:09;;;;;;;1.73;1.30;;;;;;;;;;4901226;29;20051;-84
2023/11/28 02:34:34;;;;;;;1.37;1.20;;;;;;;;;;4910277;29;20516;-84
2023/11/28 02:36:59;;;;;;;1.83;1.30;;;;;;;;;;4914392;29;20363;-84
2023/11/28 02:39:25;;;;;;;1.20;0.93;;;;;;;;;;4922953;29;20349;-84
2023/11/28 02:41:50;;;;;;;2.53;1.20;;;;;;;;;;4900089;29;20091;-83
2023/11/28 02:44:15;;;;;;;2.00;1.48;;;;;;;;;;4923310;29;20110;-83
2023/11/28 02:46:41;;;;;;;3.05;1.65;;;;;;;;;;4916622;29;20020;-84
2023/11/28 02:49:06;;;;;;;2.00;1.52;;;;;;;;;;4930647;29;20024;-83
2023/11/28 02:51:32;;;;;;;2.43;1.73;;;;;;;;;;4916587;29;20039;-83
2023/11/28 02:53:57;;;;;;;3.93;1.93;;;;;;;;;;4916282;29;20297;-82
2023/11/28 02:56:22;;;;;;;2.43;1.80;;;;;;;;;;4914776;29;20263;-83
2023/11/28 02:58:47;;;;;;;1.90;1.50;;;;;;;;;;4931080;29;20547;-83
2023/11/28 03:01:13;;;;;;;3.13;1.70;;;;;;;;;;4930963;29;20084;-83
2023/11/28 03:03:38;;;;;;;3.72;2.00;;;;;;;;;;4915879;29;20028;-83
2023/11/28 03:06:03;;;;;;;2.43;1.67;;;;;;;;;;4914968;29;20052;-83
2023/11/28 03:08:28;;;;;;;2.78;1.98;;;;;;;;;;4923228;29;20334;-83
2023/11/28 03:10:54;;;;;;;2.73;1.90;;;;;;;;;;4907794;29;20071;-83
2023/11/28 03:13:19;;;;;;;3.63;1.90;;;;;;;;;;4930642;29;20270;-84
2023/11/28 03:15:44;;;;;;;2.75;1.63;;;;;;;;;;4914292;29;20270;-83
2023/11/28 03:18:10;;;;;;;2.50;2.23;;;;;;;;;;4930489;29;20028;-83
2023/11/28 03:20:35;;;;;;;2.90;1.93;;;;;;;;;;4914917;29;20067;-84
2023/11/28 03:23:00;;;;;;;2.53;1.40;;;;;;;;;;4900171;29;20362;-83
2023/11/28 03:25:26;;;;;;;2.73;1.60;;;;;;;;;;4910744;29;20021;-83
2023/11/28 03:27:51;;;;;;;2.60;2.00;;;;;;;;;;4928942;29;20286;-83
2023/11/28 03:30:17;;;;;;;2.55;1.60;;;;;;;;;;4927985;29;20124;-83
2023/11/28 03:32:43;;;;;;;2.22;1.83;;;;;;;;;;4914711;29;20461;-83
2023/11/28 03:35:08;;;;;;;2.10;1.60;;;;;;;;;;4936872;29;20059;-83
2023/11/28 03:37:34;;;;;;;2.47;1.67;;;;;;;;;;4928417;29;20639;-83
2023/11/28 03:39:59;;;;;;;1.88;1.52;;;;;;;;;;4933206;29;20779;-83
2023/11/28 03:42:24;;;;;;;1.80;1.30;;;;;;;;;;4908988;29;20031;-83
2023/11/28 03:44:49;;;;;;;1.27;1.17;;;;;;;;;;4920531;29;20084;-83
2023/11/28 03:47:15;;;;;;;1.53;1.23;;;;;;;;;;4917786;29;20055;-83
2023/11/28 03:49:40;;;;;;;1.52;1.25;;;;;;;;;;4917154;29;20370;-83
2023/11/28 03:52:05;;;;;;;1.30;1.03;;;;;;;;;;4928701;29;20496;-84
2023/11/28 03:54:30;;;;;;;1.00;0.90;;;;;;;;;;4914334;29;20269;-83
2023/11/28 03:56:55;;;;;;;1.10;0.83;;;;;;;;;;4911753;29;20033;-83
2023/11/28 03:59:21;;;;;;;1.27;1.17;;;;;;;;;;4913167;29;20873;-83
2023/11/28 04:01:46;;;;;;;1.93;1.10;;;;;;;;;;4915026;29;20093;-84
2023/11/28 04:04:11;;;;;;;1.10;1.00;;;;;;;;;;4919664;29;20290;-83
2023/11/28 04:06:37;;;;;;;1.02;0.93;;;;;;;;;;4936704;29;20028;-83
2023/11/28 04:09:03;;;;;;;1.63;1.13;;;;;;;;;;4921661;29;20031;-84
2023/11/28 04:11:29;;;;;;;1.25;1.00;;;;;;;;;;4936233;29;20036;-83
2023/11/28 04:13:54;;;;;;;1.63;1.10;;;;;;;;;;4917315;29;20024;-83
2023/11/28 04:16:19;;;;;;;0.80;0.70;;;;;;;;;;4933128;29;20322;-84
2023/11/28 04:18:46;;;;;;;0.60;0.60;;;;;;;;;;4935787;29;20480;-83
2023/11/28 04:21:19;;;;;;;1.90;1.05;;;;;;;;;;4918523;29;20468;-83
2023/11/28 04:23:44;;;;;;;1.20;0.77;;;;;;;;;;4902420;29;20025;-84
2023/11/28 04:26:10;;;;;;;1.23;0.73;;;;;;;;;;4913349;29;20056;-83
2023/11/28 04:28:35;;;;;;;1.10;0.85;;;;;;;;;;4913588;29;20279;-83
2023/11/28 04:31:00;;;;;;;1.07;0.73;;;;;;;;;;4904968;29;20020;-83
2023/11/28 04:33:25;;;;;;;1.98;0.73;;;;;;;;;;4920236;29;20269;-83
2023/11/28 04:35:50;;;;;;;0.93;0.70;;;;;;;;;;4921833;29;20107;-83
2023/11/28 04:38:16;;;;;;;0.60;0.60;;;;;;;;;;4913478;29;20024;-83
2023/11/28 04:40:41;;;;;;;0.65;0.65;;;;;;;;;;4917222;29;20638;-83
2023/11/28 04:43:07;;;;;;;0.80;0.80;;;;;;;;;;4933347;29;20028;-83
2023/11/28 04:45:32;;;;;;;0.70;0.70;;;;;;;;;;4917090;29;20027;-83
2023/11/28 04:47:57;;;;;;;0.50;0.50;;;;;;;;;;4921065;29;20179;-83
2023/11/28 04:50:22;;;;;;;0.75;0.70;;;;;;;;;;4913708;29;20496;-83
2023/11/28 04:52:48;;;;;;;0.63;0.63;;;;;;;;;;4908499;29;20033;-83
2023/11/28 04:55:13;;;;;;;0.80;0.70;;;;;;;;;;4927430;29;20275;-82
2023/11/28 04:57:38;;;;;;;0.50;0.50;;;;;;;;;;4927939;29;20279;-82
2023/11/28 05:00:05;;;;;;;2.30;0.68;;;;;;;;;;4910262;29;20077;-83
2023/11/28 05:02:30;;;;;;;0.60;0.60;;;;;;;;;;4932969;29;20020;-83
2023/11/28 05:04:55;;;;;;;0.68;0.68;;;;;;;;;;4918817;29;20480;-84
2023/11/28 05:07:21;;;;;;;0.63;0.60;;;;;;;;;;4933945;29;20019;-84
2023/11/28 05:09:46;;;;;;;1.07;0.80;;;;;;;;;;4933772;29;20338;-84
2023/11/28 05:12:11;;;;;;;0.73;0.60;;;;;;;;;;4918467;29;20275;-83
2023/11/28 05:14:36;;;;;;;0.50;0.50;;;;;;;;;;4917586;29;20286;-83
2023/11/28 05:17:04;;;;;;;2.93;0.63;;;;;;;;;;4933637;29;20028;-83
2023/11/28 05:19:29;;;;;;;1.25;0.90;;;;;;;;;;4918986;29;20263;-83
2023/11/28 05:21:54;;;;;;;0.50;0.50;;;;;;;;;;4918854;29;20031;-83
2023/11/28 05:24:20;;;;;;;0.85;0.85;;;;;;;;;;4933399;29;20278;-83
2023/11/28 05:26:45;;;;;;;0.50;0.50;;;;;;;;;;4933392;29;20072;-83
2023/11/28 05:29:10;;;;;;;4.90;0.80;;;;;;;;;;4917541;29;20298;-83
2023/11/28 05:31:35;;;;;;;0.63;0.60;;;;;;;;;;4933401;29;20342;-83
2023/11/28 05:34:01;;;;;;;0.37;0.37;;;;;;;;;;4918597;29;20326;-83
2023/11/28 05:36:26;;;;;;;0.60;0.60;;;;;;;;;;4918751;29;20736;-83
2023/11/28 05:38:51;;;;;;;0.82;0.63;;;;;;;;;;4917470;29;20020;-83
2023/11/28 05:41:16;;;;;;;0.70;0.60;;;;;;;;;;4933223;29;20492;-83
2023/11/28 05:43:42;;;;;;;0.43;0.43;;;;;;;;;;4918550;29;20024;-83
2023/11/28 05:46:07;;;;;;;0.83;0.47;;;;;;;;;;4933047;29;20016;-83
2023/11/28 05:48:32;;;;;;;1.02;0.45;;;;;;;;;;4918530;29;20075;-83
2023/11/28 05:50:58;;;;;;;0.40;0.40;;;;;;;;;;4918257;29;20020;-83
2023/11/28 05:53:23;;;;;;;0.35;0.32;;;;;;;;;;4933001;29;20255;-83
2023/11/28 05:55:48;;;;;;;0.40;0.40;;;;;;;;;;4918383;29;20560;-83
2023/11/28 05:58:14;;;;;;;0.30;0.30;;;;;;;;;;4918363;29;20636;-83
2023/11/28 06:00:40;;;;;;;0.50;0.47;;;;;;;;;;4918337;29;20040;-83
2023/11/28 06:03:05;;;;;;;0.52;0.52;;;;;;;;;;4918197;29;20059;-83
2023/11/28 06:05:31;;;;;;;0.80;0.45;;;;;;;;;;4918086;29;20016;-83
2023/11/28 06:07:56;;;;;;;0.45;0.43;;;;;;;;;;4918295;29;20020;-83
2023/11/28 06:10:22;;;;;;;0.47;0.47;;;;;;;;;;4932772;29;20448;-83
2023/11/28 06:12:47;;;;;;;0.35;0.35;;;;;;;;;;4918174;29;20035;-83
2023/11/28 06:15:12;;;;;;;0.50;0.50;;;;;;;;;;4918105;29;20028;-83
2023/11/28 06:17:38;;;;;;;0.30;0.30;;;;;;;;;;4918075;29;20079;-83
2023/11/28 06:20:04;;;;;;;0.95;0.57;;;;;;;;;;4918044;29;20317;-83
2023/11/28 06:22:29;;;;;;;0.20;0.20;;;;;;;;;;4917969;29;20024;-83
2023/11/28 06:24:55;;;;;;;1.23;0.40;;;;;;;;;;4932346;29;20038;-83
2023/11/28 06:27:20;;;;;;;0.22;0.22;;;;;;;;;;4916438;29;20131;-83
2023/11/28 06:29:45;;;;;;;0.30;0.30;;;;;;;;;;4917921;29;20491;-84
2023/11/28 06:32:10;;;;;;;0.38;0.35;;;;;;;;;;4932325;29;20251;-83
2023/11/28 06:34:36;;;;;;;0.57;0.30;;;;;;;;;;4917847;29;20035;-83
2023/11/28 06:37:01;;;;;;;0.52;0.40;;;;;;;;;;4917761;29;20246;-83
2023/11/28 06:39:27;;;;;;;2.53;0.60;;;;;;;;;;4917709;29;20583;-83
2023/11/28 06:41:52;;;;;;;0.43;0.35;;;;;;;;;;4917712;29;20619;-83
2023/11/28 06:44:19;;;;;;;0.73;0.50;;;;;;;;;;4932116;29;20020;-83
2023/11/28 06:46:46;;;;;;;0.75;0.57;;;;;;;;;;4917662;29;20464;-83
2023/11/28 06:49:11;;;;;;;0.43;0.40;;;;;;;;;;4917617;29;20047;-83
2023/11/28 06:51:37;;;;;;;0.40;0.40;;;;;;;;;;4917584;29;20024;-83
2023/11/28 06:54:02;;;;;;;1.23;0.60;;;;;;;;;;4917425;29;20024;-83
2023/11/28 06:56:27;;;;;;;1.27;0.68;;;;;;;;;;4932031;29;20254;-83
2023/11/28 06:58:52;;;;;;;0.98;0.50;;;;;;;;;;4917505;29;20024;-83
2023/11/28 07:01:18;;;;;;;1.20;0.63;;;;;;;;;;4917569;29;20032;-83
2023/11/28 07:03:44;;;;;;;0.50;0.50;;;;;;;;;;4916788;29;20369;-83
2023/11/28 07:06:09;;;;;;;1.88;0.50;;;;;;;;;;4917280;29;20020;-83
2023/11/28 07:08:34;;;;;;;0.93;0.40;;;;;;;;;;4917391;29;20499;-83
2023/11/28 07:11:00;;;;;;;0.77;0.50;;;;;;;;;;4931789;29;20027;-83
2023/11/28 07:13:25;;;;;;;1.27;0.50;;;;;;;;;;4931818;29;20020;-83
2023/11/28 07:15:51;;;;;;;0.50;0.40;;;;;;;;;;4931807;29;20055;-83
2023/11/28 07:18:20;;;;;;;0.40;0.40;;;;;;;;;;4931672;29;20016;-83
2023/11/28 07:20:46;;;;;;;0.22;0.22;;;;;;;;;;4931717;29;20032;-83
2023/11/28 07:23:11;;;;;;;1.98;0.40;;;;;;;;;;4916995;29;20016;-83
2023/11/28 07:25:36;;;;;;;0.37;0.37;;;;;;;;;;4931723;29;20028;-83
2023/11/28 07:28:03;;;;;;;0.30;0.30;;;;;;;;;;4931474;29;20286;-83
2023/11/28 07:30:29;;;;;;;0.40;0.40;;;;;;;;;;4915783;29;20087;-83
2023/11/28 07:32:54;;;;;;;0.70;0.40;;;;;;;;;;4917044;29;20432;-83
2023/11/28 07:35:20;;;;;;;0.50;0.50;;;;;;;;;;4931541;29;20802;-83
2023/11/28 07:37:45;;;;;;;0.40;0.40;;;;;;;;;;4931606;29;20759;-83
2023/11/28 07:40:10;;;;;;;0.97;0.53;;;;;;;;;;4915712;29;20079;-83
2023/11/28 07:42:35;;;;;;;0.40;0.40;;;;;;;;;;4931528;29;20255;-83
2023/11/28 07:45:01;;;;;;;0.70;0.50;;;;;;;;;;4931409;29;20088;-83
2023/11/28 07:47:27;;;;;;;0.70;0.70;;;;;;;;;;4915695;29;20021;-83
2023/11/28 07:49:52;;;;;;;0.70;0.70;;;;;;;;;;4916889;29;20035;-83
2023/11/28 07:52:17;;;;;;;1.20;0.60;;;;;;;;;;4916878;29;20306;-83
2023/11/28 07:54:43;;;;;;;0.40;0.40;;;;;;;;;;4931430;29;20486;-83
2023/11/28 07:57:08;;;;;;;0.30;0.30;;;;;;;;;;4931476;29;20240;-83
2023/11/28 07:59:33;;;;;;;0.80;0.50;;;;;;;;;;4931337;29;20671;-83
2023/11/28 08:01:58;;;;;;;0.53;0.53;;;;;;;;;;4916769;29;20667;-83
2023/11/28 08:04:23;;;;;;;0.93;0.80;;;;;;;;;;4915444;29;20341;-83
2023/11/28 08:06:49;;;;;;;1.00;0.70;;;;;;;;;;4931375;29;20255;-83
2023/11/28 08:09:14;;;;;;;0.82;0.65;;;;;;;;;;4916750;29;20027;-83
2023/11/28 08:11:39;;;;;;;2.30;0.90;;;;;;;;;;4915498;29;20072;-83
2023/11/28 08:14:07;;;;;;;0.60;0.50;;;;;;;;;;4916669;29;20024;-83
2023/11/28 08:16:32;;;;;;;0.70;0.60;;;;;;;;;;4920062;29;20678;-83
2023/11/28 08:18:57;;;;;;;1.40;0.60;;;;;;;;;;4934845;29;20119;-83
2023/11/28 08:21:22;;;;;;;1.70;0.70;;;;;;;;;;4934767;29;20351;-83
2023/11/28 08:23:47;;;;;;;0.80;0.73;;;;;;;;;;4920029;29;20028;-83
2023/11/28 08:26:14;;;;;;;3.30;1.00;;;;;;;;;;4920011;29;20044;-83
2023/11/28 08:28:39;;;;;;;0.60;0.60;;;;;;;;;;4920157;29;20117;-83
2023/11/28 08:31:06;;;;;;;1.60;0.85;;;;;;;;;;4934629;29;20032;-83
2023/11/28 08:33:31;;;;;;;1.38;0.70;;;;;;;;;;4919944;29;20024;-83
2023/11/28 08:35:57;;;;;;;1.40;1.10;;;;;;;;;;4934574;29;20076;-83
2023/11/28 08:38:22;;;;;;;1.10;0.83;;;;;;;;;;4934486;29;20243;-83
2023/11/28 08:40:47;;;;;;;1.13;0.90;;;;;;;;;;4918602;29;20251;-83
2023/11/28 08:43:12;;;;;;;0.95;0.82;;;;;;;;;;4934313;29;20341;-83
2023/11/28 08:45:38;;;;;;;1.97;1.10;;;;;;;;;;4919799;29;20408;-84
2023/11/28 08:48:03;;;;;;;1.25;1.10;;;;;;;;;;4918451;29;20751;-83
2023/11/28 08:50:28;;;;;;;1.35;1.05;;;;;;;;;;4919673;29;20028;-83
2023/11/28 08:52:53;;;;;;;1.00;0.90;;;;;;;;;;4934152;29;20119;-83
2023/11/28 08:55:19;;;;;;;1.47;1.30;;;;;;;;;;4919559;29;20028;-83
2023/11/28 08:57:44;;;;;;;1.92;1.10;;;;;;;;;;4934373;29;20266;-83
2023/11/28 09:00:12;;;;;;;2.63;1.38;;;;;;;;;;4919570;29;20028;-83
2023/11/28 09:02:38;;;;;;;5.10;1.48;;;;;;;;;;4933998;29;20035;-83
2023/11/28 09:05:03;;;;;;;1.97;1.50;;;;;;;;;;4933902;29;20024;-83
2023/11/28 09:07:29;;;;;;;1.95;1.42;;;;;;;;;;4919426;29;20247;-83
2023/11/28 09:09:54;;;;;;;1.90;1.20;;;;;;;;;;4918050;29;20028;-83
2023/11/28 09:12:19;;;;;;;1.58;1.13;;;;;;;;;;4919351;29;20295;-83
2023/11/28 09:14:45;;;;;;;1.85;1.50;;;;;;;;;;4933879;29;20062;-83
2023/11/28 09:17:11;;;;;;;1.85;1.33;;;;;;;;;;4918242;29;20527;-83
2023/11/28 09:19:36;;;;;;;1.50;1.20;;;;;;;;;;4919288;29;20028;-83
2023/11/28 09:22:02;;;;;;;1.77;1.60;;;;;;;;;;4933622;29;20492;-83
2023/11/28 09:24:31;;;;;;;1.90;1.42;;;;;;;;;;4918947;29;20305;-83
2023/11/28 09:26:56;;;;;;;2.58;1.58;;;;;;;;;;4918453;29;20072;-83
2023/11/28 09:29:22;;;;;;;1.70;1.00;;;;;;;;;;4933487;29;20064;-83
2023/11/28 09:31:47;;;;;;;1.98;1.50;;;;;;;;;;4933563;29;20099;-83
2023/11/28 09:34:13;;;;;;;1.35;1.25;;;;;;;;;;4918892;29;20027;-83
2023/11/28 09:36:38;;;;;;;3.03;1.40;;;;;;;;;;4933460;29;20020;-83
2023/11/28 09:39:05;;;;;;;3.33;1.30;;;;;;;;;;4933393;29;20262;-83
2023/11/28 09:41:32;;;;;;;1.55;1.20;;;;;;;;;;4918756;29;20056;-83
2023/11/28 09:43:58;;;;;;;1.70;1.30;;;;;;;;;;4918637;29;20020;-83
2023/11/28 09:46:23;;;;;;;2.00;1.02;;;;;;;;;;4933267;29;20425;-83
2023/11/28 09:48:51;;;;;;;1.35;1.25;;;;;;;;;;4933270;29;20027;-83
2023/11/28 09:51:16;;;;;;;1.20;1.10;;;;;;;;;;4918613;29;20034;-83
2023/11/28 09:53:42;;;;;;;1.35;1.15;;;;;;;;;;4918574;29;20024;-83
2023/11/28 09:56:09;;;;;;;1.50;1.30;;;;;;;;;;4918547;29;20059;-83
2023/11/28 09:58:36;;;;;;;1.70;1.08;;;;;;;;;;4917243;29;20083;-83
2023/11/28 10:01:03;;;;;;;1.05;0.95;;;;;;;;;;4917151;29;20028;-83
2023/11/28 10:03:29;;;;;;;1.50;1.40;;;;;;;;;;4918346;29;20400;-83
2023/11/28 10:05:55;;;;;;;1.92;1.38;;;;;;;;;;4918365;29;20020;-83
2023/11/28 10:08:21;;;;;;;2.72;1.80;;;;;;;;;;4932844;29;20102;-83
2023/11/28 10:10:46;;;;;;;1.45;1.30;;;;;;;;;;4932895;29;20071;-83
2023/11/28 10:13:12;;;;;;;1.40;1.30;;;;;;;;;;4918232;29;20465;-83
2023/11/28 10:15:39;;;;;;;2.15;1.45;;;;;;;;;;4918221;29;20413;-83
2023/11/28 10:18:05;;;;;;;1.73;1.55;;;;;;;;;;4918082;29;20031;-83
2023/11/28 10:20:30;;;;;;;1.90;1.70;;;;;;;;;;4918047;29;20540;-83
2023/11/28 10:22:56;;;;;;;1.52;1.42;;;;;;;;;;4917949;29;20429;-83
2023/11/28 10:25:23;;;;;;;2.22;1.50;;;;;;;;;;4916673;29;20167;-83
2023/11/28 10:27:49;;;;;;;2.60;1.90;;;;;;;;;;4932283;29;20055;-83
2023/11/28 10:30:21;;;;;;;1.85;1.40;;;;;;;;;;4932432;29;20038;-83
2023/11/28 10:32:46;;;;;;;2.50;1.60;;;;;;;;;;4917910;29;20027;-83
2023/11/28 10:35:11;;;;;;;2.03;1.58;;;;;;;;;;4917833;29;20027;-83
2023/11/28 10:37:37;;;;;;;1.73;1.57;;;;;;;;;;4915711;29;20038;-83
2023/11/28 10:40:07;;;;;;;2.00;1.80;;;;;;;;;;4932321;29;20247;-83
2023/11/28 10:42:33;;;;;;;4.72;1.88;;;;;;;;;;4932249;29;20059;-83
2023/11/28 10:44:59;;;;;;;2.47;2.00;;;;;;;;;;4932129;29;20051;-83
2023/11/28 10:47:31;;;;;;;2.65;1.90;;;;;;;;;;4932189;29;20438;-83
2023/11/28 10:49:56;;;;;;;4.40;2.35;;;;;;;;;;4916354;29;20330;-83
2023/11/28 10:52:25;;;;;;;2.58;2.10;;;;;;;;;;4917523;29;20027;-83
2023/11/28 10:54:54;;;;;;;3.05;2.20;;;;;;;;;;4932073;29;20544;-83
2023/11/28 10:57:24;;;;;;;2.90;2.25;;;;;;;;;;4916195;29;20062;-83
2023/11/28 10:59:50;;;;;;;1.75;1.65;;;;;;;;;;4932010;29;20527;-83
2023/11/28 11:02:16;;;;;;;4.60;2.22;;;;;;;;;;4931939;29;20031;-83
2023/11/28 11:04:41;;;;;;;3.25;2.42;;;;;;;;;;4931877;29;20480;-83
2023/11/28 11:07:06;;;;;;;2.42;2.15;;;;;;;;;;4917430;29;20020;-83
2023/11/28 11:09:32;;;;;;;2.35;2.10;;;;;;;;;;4931850;29;20020;-83
2023/11/28 11:11:57;;;;;;;3.63;2.40;;;;;;;;;;4931835;29;20025;-83
2023/11/28 11:14:26;;;;;;;2.63;2.38;;;;;;;;;;4931859;29;20480;-83
2023/11/28 11:16:55;;;;;;;3.30;2.63;;;;;;;;;;4917174;29;20024;-83
2023/11/28 11:19:21;;;;;;;5.70;2.28;;;;;;;;;;4915924;29;20034;-83
2023/11/28 11:21:49;;;;;;;5.68;3.17;;;;;;;;;;4931700;29;20433;-83
2023/11/28 11:24:16;;;;;;;3.83;2.85;;;;;;;;;;4931640;29;20031;-83
2023/11/28 11:26:45;;;;;;;3.95;2.50;;;;;;;;;;4917019;29;20091;-83
2023/11/28 11:29:25;;;;;;;2.63;2.35;;;;;;;;;;4917173;29;20107;-83
2023/11/28 11:31:51;;;;;;;3.28;2.55;;;;;;;;;;4931621;29;20392;-83
2023/11/28 11:34:32;;;;;;;2.72;2.45;;;;;;;;;;4931633;29;20031;-83
2023/11/28 11:37:06;;;;;;;2.85;2.42;;;;;;;;;;4916986;29;20028;-83
2023/11/28 11:39:33;;;;;;;3.40;2.40;;;;;;;;;;4931567;29;20024;-83
2023/11/28 11:41:59;;;;;;;4.65;2.60;;;;;;;;;;4931502;29;20032;-83
2023/11/28 11:44:24;;;;;;;3.67;2.63;;;;;;;;;;4916926;29;20043;-83
2023/11/28 11:46:50;;;;;;;2.88;2.58;;;;;;;;;;4915651;29;20259;-83
2023/11/28 11:49:16;;;;;;;3.22;2.70;;;;;;;;;;4918592;29;20020;-83
2023/11/28 11:51:42;;;;;;;5.72;3.30;;;;;;;;;;4920751;29;20016;-83
2023/11/28 11:54:08;;;;;;;8.15;3.85;;;;;;;;;;4920722;29;20036;-83
2023/11/28 11:56:33;;;;;;;3.40;2.92;;;;;;;;;;4919389;29;20059;-83
2023/11/28 11:59:02;;;;;;;3.80;3.40;;;;;;;;;;4920621;29;20453;-83
2023/11/28 12:01:29;;;;;;;5.82;3.17;;;;;;;;;;4920544;29;20345;-83
2023/11/28 12:03:58;;;;;;;4.85;3.00;;;;;;;;;;4935055;29;20472;-83
2023/11/28 12:06:23;;;;;;;4.07;3.00;;;;;;;;;;4920488;29;20366;-83
2023/11/28 12:08:48;;;;;;;4.10;2.80;;;;;;;;;;4919232;29;20027;-83
2023/11/28 12:11:14;;;;;;;3.55;2.67;;;;;;;;;;4920412;29;20247;-83
2023/11/28 12:13:40;;;;;;;3.58;2.90;;;;;;;;;;4919055;29;20023;-83
2023/11/28 12:16:05;;;;;;;3.70;3.05;;;;;;;;;;4920303;29;20023;-83
2023/11/28 12:18:31;;;;;;;3.65;2.75;;;;;;;;;;4934916;29;20030;-83
2023/11/28 12:20:57;;;;;;;4.15;3.30;;;;;;;;;;4918965;29;20024;-83
2023/11/28 12:23:22;;;;;;;4.00;3.33;;;;;;;;;;4934633;29;20390;-83
2023/11/28 12:25:47;;;;;;;3.60;2.88;;;;;;;;;;4934788;29;20456;-83
2023/11/28 12:28:13;;;;;;;3.97;3.00;;;;;;;;;;4918701;29;20055;-83
2023/11/28 12:30:39;;;;;;;4.00;2.97;;;;;;;;;;4934632;29;20366;-83
2023/11/28 12:33:04;;;;;;;4.47;3.00;;;;;;;;;;4934654;29;20115;-83
2023/11/28 12:35:30;;;;;;;4.25;3.25;;;;;;;;;;4919967;29;20091;-83
2023/11/28 12:37:55;;;;;;;4.80;3.10;;;;;;;;;;4918685;29;20479;-83
2023/11/28 12:40:21;;;;;;;4.88;3.30;;;;;;;;;;4919853;29;20358;-83
2023/11/28 12:42:47;;;;;;;4.00;3.22;;;;;;;;;;4934441;29;20032;-83
2023/11/28 12:45:12;;;;;;;4.38;3.42;;;;;;;;;;4919785;29;20107;-83
2023/11/28 12:47:38;;;;;;;5.07;3.30;;;;;;;;;;4919791;29;20024;-83
2023/11/28 12:50:04;;;;;;;4.32;3.13;;;;;;;;;;4934313;29;20031;-82
2023/11/28 12:52:30;;;;;;;4.53;2.97;;;;;;;;;;4934215;29;20044;-83
2023/11/28 12:54:56;;;;;;;4.35;3.33;;;;;;;;;;4934258;29;20028;-83
2023/11/28 12:57:22;;;;;;;5.17;3.40;;;;;;;;;;4918427;29;20477;-83
2023/11/28 12:59:47;;;;;;;4.22;3.13;;;;;;;;;;4919393;29;20255;-83
2023/11/28 13:02:12;;;;;;;5.03;3.17;;;;;;;;;;4933500;29;20528;-83
2023/11/28 13:04:38;;;;;;;5.03;3.42;;;;;;;;;;4918130;29;20028;-83
2023/11/28 13:07:03;;;;;;;4.95;3.33;;;;;;;;;;4934001;29;20080;-83
2023/11/28 13:09:28;;;;;;;4.07;2.75;;;;;;;;;;4919361;29;20052;-83
2023/11/28 13:11:54;;;;;;;6.10;3.35;;;;;;;;;;4933821;29;20067;-83
2023/11/28 13:14:19;;;;;;;4.72;3.33;;;;;;;;;;4933881;29;20024;-83
2023/11/28 13:16:44;;;;;;;4.03;3.17;;;;;;;;;;4933879;29;20071;-83
2023/11/28 13:19:09;;;;;;;4.60;3.20;;;;;;;;;;4919115;29;20334;-83
2023/11/28 13:21:36;;;;;;;4.40;2.90;;;;;;;;;;4919050;29;20254;-83
2023/11/28 13:24:01;;;;;;;3.97;3.13;;;;;;;;;;4919042;29;20342;-83
2023/11/28 13:26:26;;;;;;;4.85;2.65;;;;;;;;;;4917710;29;20040;-83
2023/11/28 13:28:52;;;;;;;3.53;2.87;;;;;;;;;;4919006;29;20079;-83
2023/11/28 13:31:17;;;;;;;3.33;2.67;;;;;;;;;;4918922;29;20385;-83
2023/11/28 13:33:45;;;;;;;3.53;2.88;;;;;;;;;;4918947;29;20261;-83
2023/11/28 13:36:11;;;;;;;4.18;3.10;;;;;;;;;;4918958;29;20020;-83
2023/11/28 13:38:36;;;;;;;5.95;3.72;;;;;;;;;;4933413;29;20020;-83
2023/11/28 13:41:02;;;;;;;4.73;3.33;;;;;;;;;;4933461;29;20052;-83
2023/11/28 13:43:27;;;;;;;5.13;3.53;;;;;;;;;;4933328;29;20287;-83
2023/11/28 13:45:53;;;;;;;4.85;3.42;;;;;;;;;;4933337;29;20459;-83
2023/11/28 13:48:18;;;;;;;4.55;3.40;;;;;;;;;;4933251;29;20448;-83
2023/11/28 13:50:43;;;;;;;5.30;3.67;;;;;;;;;;4918598;29;20480;-83
2023/11/28 13:53:09;;;;;;;5.15;3.67;;;;;;;;;;4918595;29;20719;-83
2023/11/28 13:55:36;;;;;;;5.78;4.10;;;;;;;;;;4918528;29;20063;-83
2023/11/28 13:58:01;;;;;;;7.15;3.95;;;;;;;;;;4933063;29;20039;-83
2023/11/28 14:00:27;;;;;;;5.03;3.77;;;;;;;;;;4918391;29;20103;-83
2023/11/28 14:02:53;;;;;;;5.03;3.60;;;;;;;;;;4932968;29;20321;-83
2023/11/28 14:05:18;;;;;;;5.05;3.50;;;;;;;;;;4932903;29;20275;-83
2023/11/28 14:07:44;;;;;;;4.72;3.83;;;;;;;;;;4932976;29;20078;-83
2023/11/28 14:10:09;;;;;;;8.32;4.25;;;;;;;;;;4932911;29;20020;-83
2023/11/28 14:12:35;;;;;;;4.85;3.95;;;;;;;;;;4932714;29;20020;-83
2023/11/28 14:15:01;;;;;;;7.75;4.03;;;;;;;;;;4918181;29;20395;-83
2023/11/28 14:17:26;;;;;;;4.60;3.78;;;;;;;;;;4916903;29;20036;-83
2023/11/28 14:19:53;;;;;;;7.13;4.70;;;;;;;;;;4932759;29;20451;-83
2023/11/28 14:22:18;;;;;;;6.78;4.43;;;;;;;;;;4916741;29;20115;-83
2023/11/28 14:24:43;;;;;;;5.47;4.10;;;;;;;;;;4932483;29;20111;-83
2023/11/28 14:27:09;;;;;;;5.27;4.00;;;;;;;;;;4917836;29;20067;-83
2023/11/28 14:29:34;;;;;;;7.65;4.22;;;;;;;;;;4917861;29;20242;-83
2023/11/28 14:32:00;;;;;;;5.43;4.35;;;;;;;;;;4932474;29;20027;-83
2023/11/28 14:34:25;;;;;;;6.00;4.65;;;;;;;;;;4917872;29;20477;-82